sensor_id;sensor_type;location;lat;lon;timestamp;pressure;altitude;pressure_sealevel;temperature;humidity
9249;BME280;4660;41.768;26.198;2024-02-04T00:00:23;101351.69;;;2.97;100.00
9249;BME280;4660;41.768;26.198;2024-02-04T00:02:48;101342.84;;;3.14;100.00
9249;BME280;4660;41.768;26.198;2024-02-04T00:05:14;101344.34;;;3.37;100.00
9249;BME280;4660;41.768;26.198;2024-02-04T00:07:39;101333.78;;;3.18;100.00
9249;BME280;4660;41.768;26.198;2024-02-04T00:10:05;101339.66;;;3.24;100.00
9249;BME280;4660;41.768;26.198;2024-02-04T00:12:31;101348.41;;;3.09;100.00
9249;BME280;4660;41.768;26.198;2024-02-04T00:14:56;101337.06;;;2.88;100.00
9249;BME280;4660;41.768;26.198;2024-02-04T00:17:21;101341.09;;;2.78;100.00
9249;BME280;4660;41.768;26.198;2024-02-04T00:19:47;101337.38;;;2.82;100.00
9249;BME280;4660;41.768;26.198;2024-02-04T00:22:12;101327.06;;;2.93;100.00
9249;BME280;4660;41.768;26.198;2024-02-04T00:24:38;101350.88;;;2.78;100.00
9249;BME280;4660;41.768;26.198;2024-02-04T00:27:04;101331.88;;;2.68;100.00
9249;BME280;4660;41.768;26.198;2024-02-04T00:29:29;101333.78;;;2.47;100.00
9249;BME280;4660;41.768;26.198;2024-02-04T00:31:55;101337.22;;;2.49;100.00
9249;BME280;4660;41.768;26.198;2024-02-04T00:34:20;101347.22;;;2.97;100.00
9249;BME280;4660;41.768;26.198;2024-02-04T00:36:46;101349.03;;;2.97;100.00
9249;BME280;4660;41.768;26.198;2024-02-04T00:39:11;101339.72;;;3.06;100.00
9249;BME280;4660;41.768;26.198;2024-02-04T00:41:37;101350.75;;;2.98;100.00
9249;BME280;4660;41.768;26.198;2024-02-04T00:44:02;101349.09;;;3.13;100.00
9249;BME280;4660;41.768;26.198;2024-02-04T00:46:28;101353.16;;;3.20;100.00
9249;BME280;4660;41.768;26.198;2024-02-04T00:48:53;101342.78;;;3.15;100.00
9249;BME280;4660;41.768;26.198;2024-02-04T00:51:20;101337.06;;;3.06;100.00
9249;BME280;4660;41.768;26.198;2024-02-04T00:53:46;101341.59;;;2.86;100.00
9249;BME280;4660;41.768;26.198;2024-02-04T00:56:12;101339.56;;;2.91;100.00
9249;BME280;4660;41.768;26.198;2024-02-04T00:58:38;101338.09;;;2.49;100.00
9249;BME280;4660;41.768;26.198;2024-02-04T01:01:04;101340.66;;;2.15;100.00
9249;BME280;4660;41.768;26.198;2024-02-04T01:03:31;101339.91;;;1.92;100.00
9249;BME280;4660;41.768;26.198;2024-02-04T01:05:57;101335.38;;;2.13;100.00
9249;BME280;4660;41.768;26.198;2024-02-04T01:08:23;101341.34;;;2.37;100.00
9249;BME280;4660;41.768;26.198;2024-02-04T01:10:48;101332.25;;;2.60;100.00
9249;BME280;4660;41.768;26.198;2024-02-04T01:13:16;101341.00;;;2.62;100.00
9249;BME280;4660;41.768;26.198;2024-02-04T01:15:42;101331.00;;;2.50;100.00
9249;BME280;4660;41.768;26.198;2024-02-04T01:18:07;101340.91;;;2.46;100.00
9249;BME280;4660;41.768;26.198;2024-02-04T01:20:32;101321.75;;;2.40;100.00
9249;BME280;4660;41.768;26.198;2024-02-04T01:22:58;101335.56;;;2.29;100.00
9249;BME280;4660;41.768;26.198;2024-02-04T01:25:23;101337.56;;;2.05;100.00
9249;BME280;4660;41.768;26.198;2024-02-04T01:27:49;101332.47;;;2.01;100.00
9249;BME280;4660;41.768;26.198;2024-02-04T01:30:14;101341.88;;;2.08;100.00
9249;BME280;4660;41.768;26.198;2024-02-04T01:32:40;101344.66;;;2.05;100.00
9249;BME280;4660;41.768;26.198;2024-02-04T01:35:06;101335.25;;;1.98;100.00
9249;BME280;4660;41.768;26.198;2024-02-04T01:37:32;101341.53;;;1.76;100.00
9249;BME280;4660;41.768;26.198;2024-02-04T01:39:57;101335.81;;;1.67;100.00
9249;BME280;4660;41.768;26.198;2024-02-04T01:42:23;101331.31;;;1.87;100.00
9249;BME280;4660;41.768;26.198;2024-02-04T01:44:48;101324.00;;;1.92;100.00
9249;BME280;4660;41.768;26.198;2024-02-04T01:47:14;101320.72;;;1.87;100.00
9249;BME280;4660;41.768;26.198;2024-02-04T01:49:40;101308.81;;;1.96;100.00
9249;BME280;4660;41.768;26.198;2024-02-04T01:52:05;101313.53;;;1.89;100.00
9249;BME280;4660;41.768;26.198;2024-02-04T01:54:33;101305.34;;;2.13;100.00
9249;BME280;4660;41.768;26.198;2024-02-04T01:56:59;101311.13;;;2.21;100.00
9249;BME280;4660;41.768;26.198;2024-02-04T01:59:29;101299.25;;;2.30;100.00
9249;BME280;4660;41.768;26.198;2024-02-04T02:01:59;101293.69;;;2.34;100.00
9249;BME280;4660;41.768;26.198;2024-02-04T02:04:25;101307.63;;;2.39;100.00
9249;BME280;4660;41.768;26.198;2024-02-04T02:06:53;101271.38;;;1.83;100.00
9249;BME280;4660;41.768;26.198;2024-02-04T02:09:18;101305.22;;;2.16;100.00
9249;BME280;4660;41.768;26.198;2024-02-04T02:11:47;101308.97;;;1.93;100.00
9249;BME280;4660;41.768;26.198;2024-02-04T02:14:15;101305.41;;;1.92;100.00
9249;BME280;4660;41.768;26.198;2024-02-04T02:16:44;101311.22;;;1.82;100.00
9249;BME280;4660;41.768;26.198;2024-02-04T02:22:16;101312.75;;;1.48;100.00
9249;BME280;4660;41.768;26.198;2024-02-04T02:24:46;101307.56;;;1.26;100.00
9249;BME280;4660;41.768;26.198;2024-02-04T02:27:12;101319.75;;;1.30;100.00
9249;BME280;4660;41.768;26.198;2024-02-04T02:29:37;101299.56;;;1.47;100.00
9249;BME280;4660;41.768;26.198;2024-02-04T02:32:03;101319.44;;;1.57;100.00
9249;BME280;4660;41.768;26.198;2024-02-04T02:34:30;101316.50;;;1.63;100.00
9249;BME280;4660;41.768;26.198;2024-02-04T02:39:50;101314.50;;;1.68;100.00
9249;BME280;4660;41.768;26.198;2024-02-04T02:42:18;101314.75;;;1.82;100.00
9249;BME280;4660;41.768;26.198;2024-02-04T02:44:47;101314.31;;;1.91;100.00
9249;BME280;4660;41.768;26.198;2024-02-04T02:47:13;101310.44;;;1.99;100.00
9249;BME280;4660;41.768;26.198;2024-02-04T02:49:39;101314.25;;;1.93;100.00
9249;BME280;4660;41.768;26.198;2024-02-04T02:52:05;101326.84;;;1.50;100.00
9249;BME280;4660;41.768;26.198;2024-02-04T02:54:31;101309.16;;;1.49;100.00
9249;BME280;4660;41.768;26.198;2024-02-04T02:56:56;101299.19;;;1.35;100.00
9249;BME280;4660;41.768;26.198;2024-02-04T02:59:22;101296.53;;;1.35;100.00
9249;BME280;4660;41.768;26.198;2024-02-04T03:01:47;101304.47;;;1.56;100.00
9249;BME280;4660;41.768;26.198;2024-02-04T03:04:13;101309.38;;;1.65;100.00
9249;BME280;4660;41.768;26.198;2024-02-04T03:06:38;101307.63;;;1.64;100.00
9249;BME280;4660;41.768;26.198;2024-02-04T03:09:04;101304.59;;;1.53;100.00
9249;BME280;4660;41.768;26.198;2024-02-04T03:11:29;101304.25;;;1.60;100.00
9249;BME280;4660;41.768;26.198;2024-02-04T03:13:55;101304.09;;;1.63;100.00
9249;BME280;4660;41.768;26.198;2024-02-04T03:16:20;101302.47;;;1.61;100.00
9249;BME280;4660;41.768;26.198;2024-02-04T03:18:46;101302.78;;;1.74;100.00
9249;BME280;4660;41.768;26.198;2024-02-04T03:21:15;101302.91;;;1.89;100.00
9249;BME280;4660;41.768;26.198;2024-02-04T03:23:41;101302.75;;;1.92;100.00
9249;BME280;4660;41.768;26.198;2024-02-04T03:26:08;101308.06;;;1.92;100.00
9249;BME280;4660;41.768;26.198;2024-02-04T03:28:33;101299.03;;;1.97;100.00
9249;BME280;4660;41.768;26.198;2024-02-04T03:30:59;101293.81;;;1.95;100.00
9249;BME280;4660;41.768;26.198;2024-02-04T03:33:24;101298.03;;;1.99;100.00
9249;BME280;4660;41.768;26.198;2024-02-04T03:35:50;101291.72;;;2.02;100.00
9249;BME280;4660;41.768;26.198;2024-02-04T03:38:15;101291.66;;;2.03;100.00
9249;BME280;4660;41.768;26.198;2024-02-04T03:40:41;101284.19;;;1.92;100.00
9249;BME280;4660;41.768;26.198;2024-02-04T03:43:10;101275.44;;;1.90;100.00
9249;BME280;4660;41.768;26.198;2024-02-04T03:45:36;101271.94;;;1.71;100.00
9249;BME280;4660;41.768;26.198;2024-02-04T03:48:02;101290.72;;;1.85;100.00
9249;BME280;4660;41.768;26.198;2024-02-04T03:50:28;101285.72;;;1.79;100.00
9249;BME280;4660;41.768;26.198;2024-02-04T03:52:53;101276.66;;;1.46;100.00
9249;BME280;4660;41.768;26.198;2024-02-04T03:55:19;101276.81;;;1.61;100.00
9249;BME280;4660;41.768;26.198;2024-02-04T03:57:44;101288.50;;;1.76;100.00
9249;BME280;4660;41.768;26.198;2024-02-04T04:00:10;101285.00;;;1.76;100.00
9249;BME280;4660;41.768;26.198;2024-02-04T04:02:36;101276.59;;;1.66;100.00
9249;BME280;4660;41.768;26.198;2024-02-04T04:05:02;101292.09;;;1.75;100.00
9249;BME280;4660;41.768;26.198;2024-02-04T04:07:27;101282.84;;;1.65;100.00
9249;BME280;4660;41.768;26.198;2024-02-04T04:09:53;101290.41;;;1.54;100.00
9249;BME280;4660;41.768;26.198;2024-02-04T04:12:19;101294.97;;;1.31;100.00
9249;BME280;4660;41.768;26.198;2024-02-04T04:14:44;101294.53;;;1.22;100.00
9249;BME280;4660;41.768;26.198;2024-02-04T04:17:10;101284.44;;;1.09;100.00
9249;BME280;4660;41.768;26.198;2024-02-04T04:19:35;101266.16;;;0.83;100.00
9249;BME280;4660;41.768;26.198;2024-02-04T04:22:02;101278.56;;;1.23;100.00
9249;BME280;4660;41.768;26.198;2024-02-04T04:24:28;101276.09;;;1.19;100.00
9249;BME280;4660;41.768;26.198;2024-02-04T04:26:54;101283.03;;;1.21;100.00
9249;BME280;4660;41.768;26.198;2024-02-04T04:29:20;101283.44;;;1.12;100.00
9249;BME280;4660;41.768;26.198;2024-02-04T04:31:46;101279.41;;;0.83;100.00
9249;BME280;4660;41.768;26.198;2024-02-04T04:34:11;101283.31;;;0.74;100.00
9249;BME280;4660;41.768;26.198;2024-02-04T04:36:37;101280.38;;;0.60;100.00
9249;BME280;4660;41.768;26.198;2024-02-04T04:39:02;101292.19;;;0.73;100.00
9249;BME280;4660;41.768;26.198;2024-02-04T04:41:28;101298.75;;;0.65;100.00
9249;BME280;4660;41.768;26.198;2024-02-04T04:43:53;101298.63;;;0.46;100.00
9249;BME280;4660;41.768;26.198;2024-02-04T04:46:19;101298.13;;;0.78;100.00
9249;BME280;4660;41.768;26.198;2024-02-04T04:48:45;101287.66;;;0.55;100.00
9249;BME280;4660;41.768;26.198;2024-02-04T04:51:11;101287.25;;;0.86;100.00
9249;BME280;4660;41.768;26.198;2024-02-04T04:53:37;101271.13;;;0.91;100.00
9249;BME280;4660;41.768;26.198;2024-02-04T04:56:03;101293.44;;;0.65;100.00
9249;BME280;4660;41.768;26.198;2024-02-04T04:58:29;101297.28;;;0.98;100.00
9249;BME280;4660;41.768;26.198;2024-02-04T05:00:54;101292.06;;;1.17;100.00
9249;BME280;4660;41.768;26.198;2024-02-04T05:03:20;101288.28;;;1.23;100.00
9249;BME280;4660;41.768;26.198;2024-02-04T05:05:45;101280.00;;;1.10;100.00
9249;BME280;4660;41.768;26.198;2024-02-04T05:08:13;101280.00;;;1.10;100.00
9249;BME280;4660;41.768;26.198;2024-02-04T05:10:40;101290.06;;;0.81;100.00
9249;BME280;4660;41.768;26.198;2024-02-04T05:13:07;101289.66;;;0.91;100.00
9249;BME280;4660;41.768;26.198;2024-02-04T05:15:32;101283.56;;;0.68;100.00
9249;BME280;4660;41.768;26.198;2024-02-04T05:18:00;101287.94;;;0.69;100.00
9249;BME280;4660;41.768;26.198;2024-02-04T05:20:26;101261.88;;;0.80;100.00
9249;BME280;4660;41.768;26.198;2024-02-04T05:22:51;101273.19;;;0.84;100.00
9249;BME280;4660;41.768;26.198;2024-02-04T05:25:17;101287.56;;;0.99;100.00
9249;BME280;4660;41.768;26.198;2024-02-04T05:27:42;101282.50;;;0.93;100.00
9249;BME280;4660;41.768;26.198;2024-02-04T05:30:08;101270.72;;;0.59;100.00
9249;BME280;4660;41.768;26.198;2024-02-04T05:32:34;101283.97;;;1.00;100.00
9249;BME280;4660;41.768;26.198;2024-02-04T05:35:00;101290.34;;;1.16;100.00
9249;BME280;4660;41.768;26.198;2024-02-04T05:37:26;101307.22;;;1.34;100.00
9249;BME280;4660;41.768;26.198;2024-02-04T05:39:51;101304.88;;;1.47;100.00
9249;BME280;4660;41.768;26.198;2024-02-04T05:42:17;101293.63;;;1.42;100.00
9249;BME280;4660;41.768;26.198;2024-02-04T05:44:42;101305.53;;;1.52;100.00
9249;BME280;4660;41.768;26.198;2024-02-04T05:47:08;101299.03;;;1.59;100.00
9249;BME280;4660;41.768;26.198;2024-02-04T05:49:33;101298.75;;;1.65;100.00
9249;BME280;4660;41.768;26.198;2024-02-04T05:51:58;101301.75;;;1.76;100.00
9249;BME280;4660;41.768;26.198;2024-02-04T05:54:24;101281.75;;;1.69;100.00
9249;BME280;4660;41.768;26.198;2024-02-04T05:56:49;101289.16;;;1.81;100.00
9249;BME280;4660;41.768;26.198;2024-02-04T05:59:15;101299.75;;;1.81;100.00
9249;BME280;4660;41.768;26.198;2024-02-04T06:01:41;101294.16;;;1.69;100.00
9249;BME280;4660;41.768;26.198;2024-02-04T06:04:07;101309.13;;;1.51;100.00
9249;BME280;4660;41.768;26.198;2024-02-04T06:06:33;101295.88;;;1.70;100.00
9249;BME280;4660;41.768;26.198;2024-02-04T06:08:58;101296.03;;;1.85;100.00
9249;BME280;4660;41.768;26.198;2024-02-04T06:11:24;101327.66;;;1.90;100.00
9249;BME280;4660;41.768;26.198;2024-02-04T06:13:50;101326.34;;;1.99;100.00
9249;BME280;4660;41.768;26.198;2024-02-04T06:16:16;101334.44;;;1.77;100.00
9249;BME280;4660;41.768;26.198;2024-02-04T06:18:42;101343.28;;;1.57;100.00
9249;BME280;4660;41.768;26.198;2024-02-04T06:21:07;101315.81;;;1.59;100.00
9249;BME280;4660;41.768;26.198;2024-02-04T06:23:33;101335.53;;;1.73;100.00
9249;BME280;4660;41.768;26.198;2024-02-04T06:26:02;101344.75;;;1.64;100.00
9249;BME280;4660;41.768;26.198;2024-02-04T06:28:28;101339.41;;;1.45;100.00
9249;BME280;4660;41.768;26.198;2024-02-04T06:30:53;101342.28;;;1.20;100.00
9249;BME280;4660;41.768;26.198;2024-02-04T06:33:19;101352.94;;;1.59;100.00
9249;BME280;4660;41.768;26.198;2024-02-04T06:35:44;101364.03;;;1.88;100.00
9249;BME280;4660;41.768;26.198;2024-02-04T06:38:10;101354.47;;;1.84;100.00
9249;BME280;4660;41.768;26.198;2024-02-04T06:40:35;101336.00;;;1.62;100.00
9249;BME280;4660;41.768;26.198;2024-02-04T06:43:01;101340.88;;;1.71;100.00
9249;BME280;4660;41.768;26.198;2024-02-04T06:45:26;101319.63;;;1.73;100.00
9249;BME280;4660;41.768;26.198;2024-02-04T06:47:52;101321.91;;;1.99;100.00
9249;BME280;4660;41.768;26.198;2024-02-04T06:50:17;101341.22;;;2.22;100.00
9249;BME280;4660;41.768;26.198;2024-02-04T06:52:43;101328.84;;;2.39;100.00
9249;BME280;4660;41.768;26.198;2024-02-04T06:55:09;101336.00;;;2.56;100.00
9249;BME280;4660;41.768;26.198;2024-02-04T06:57:35;101331.09;;;2.66;100.00
9249;BME280;4660;41.768;26.198;2024-02-04T07:00:00;101341.56;;;2.69;100.00
9249;BME280;4660;41.768;26.198;2024-02-04T07:02:26;101331.25;;;2.63;100.00
9249;BME280;4660;41.768;26.198;2024-02-04T07:04:52;101329.63;;;2.41;100.00
9249;BME280;4660;41.768;26.198;2024-02-04T07:07:18;101321.34;;;2.66;100.00
9249;BME280;4660;41.768;26.198;2024-02-04T07:09:44;101329.72;;;2.93;100.00
9249;BME280;4660;41.768;26.198;2024-02-04T07:12:09;101319.88;;;3.13;100.00
9249;BME280;4660;41.768;26.198;2024-02-04T07:14:34;101324.31;;;3.12;100.00
9249;BME280;4660;41.768;26.198;2024-02-04T07:17:01;101325.81;;;3.18;100.00
9249;BME280;4660;41.768;26.198;2024-02-04T07:19:27;101318.47;;;3.23;100.00
9249;BME280;4660;41.768;26.198;2024-02-04T07:21:52;101325.47;;;3.41;100.00
9249;BME280;4660;41.768;26.198;2024-02-04T07:24:18;101335.69;;;3.16;100.00
9249;BME280;4660;41.768;26.198;2024-02-04T07:26:45;101322.38;;;2.98;100.00
9249;BME280;4660;41.768;26.198;2024-02-04T07:29:12;101317.78;;;3.02;100.00
9249;BME280;4660;41.768;26.198;2024-02-04T07:31:37;101299.94;;;3.04;100.00
9249;BME280;4660;41.768;26.198;2024-02-04T07:34:04;101307.56;;;3.27;100.00
9249;BME280;4660;41.768;26.198;2024-02-04T07:36:30;101316.81;;;3.38;100.00
9249;BME280;4660;41.768;26.198;2024-02-04T07:38:55;101314.38;;;3.33;100.00
9249;BME280;4660;41.768;26.198;2024-02-04T07:41:21;101327.16;;;3.59;100.00
9249;BME280;4660;41.768;26.198;2024-02-04T07:43:46;101317.41;;;3.43;100.00
9249;BME280;4660;41.768;26.198;2024-02-04T07:46:13;101336.91;;;3.43;100.00
9249;BME280;4660;41.768;26.198;2024-02-04T07:48:39;101340.75;;;3.38;100.00
9249;BME280;4660;41.768;26.198;2024-02-04T07:51:04;101314.22;;;3.19;100.00
9249;BME280;4660;41.768;26.198;2024-02-04T07:53:30;101313.38;;;3.18;100.00
9249;BME280;4660;41.768;26.198;2024-02-04T07:55:55;101323.63;;;3.26;100.00
9249;BME280;4660;41.768;26.198;2024-02-04T07:58:21;101308.28;;;3.31;100.00
9249;BME280;4660;41.768;26.198;2024-02-04T08:00:49;101325.00;;;3.50;100.00
9249;BME280;4660;41.768;26.198;2024-02-04T08:03:15;101312.03;;;3.93;100.00
9249;BME280;4660;41.768;26.198;2024-02-04T08:05:40;101282.50;;;4.13;100.00
9249;BME280;4660;41.768;26.198;2024-02-04T08:08:06;101296.50;;;4.33;100.00
9249;BME280;4660;41.768;26.198;2024-02-04T08:10:31;101305.16;;;4.52;100.00
9249;BME280;4660;41.768;26.198;2024-02-04T08:12:56;101310.50;;;4.52;100.00
9249;BME280;4660;41.768;26.198;2024-02-04T08:15:22;101318.03;;;4.60;100.00
9249;BME280;4660;41.768;26.198;2024-02-04T08:17:48;101329.38;;;4.48;100.00
9249;BME280;4660;41.768;26.198;2024-02-04T08:20:13;101322.78;;;4.39;100.00
9249;BME280;4660;41.768;26.198;2024-02-04T08:22:39;101320.47;;;4.33;100.00
9249;BME280;4660;41.768;26.198;2024-02-04T08:25:05;101335.06;;;4.26;100.00
9249;BME280;4660;41.768;26.198;2024-02-04T08:27:31;101327.25;;;4.23;100.00
9249;BME280;4660;41.768;26.198;2024-02-04T08:29:56;101328.44;;;4.33;100.00
9249;BME280;4660;41.768;26.198;2024-02-04T08:32:22;101339.44;;;4.27;100.00
9249;BME280;4660;41.768;26.198;2024-02-04T08:34:47;101323.38;;;3.97;100.00
9249;BME280;4660;41.768;26.198;2024-02-04T08:37:13;101307.19;;;3.84;100.00
9249;BME280;4660;41.768;26.198;2024-02-04T08:39:39;101315.13;;;4.01;100.00
9249;BME280;4660;41.768;26.198;2024-02-04T08:42:04;101317.28;;;4.26;100.00
9249;BME280;4660;41.768;26.198;2024-02-04T08:44:30;101308.75;;;4.35;100.00
9249;BME280;4660;41.768;26.198;2024-02-04T08:46:55;101312.38;;;4.50;100.00
9249;BME280;4660;41.768;26.198;2024-02-04T08:49:21;101311.31;;;4.68;100.00
9249;BME280;4660;41.768;26.198;2024-02-04T08:51:47;101304.78;;;4.74;100.00
9249;BME280;4660;41.768;26.198;2024-02-04T08:54:12;101316.53;;;4.86;100.00
9249;BME280;4660;41.768;26.198;2024-02-04T08:56:38;101315.22;;;4.93;100.00
9249;BME280;4660;41.768;26.198;2024-02-04T08:59:03;101308.84;;;4.95;100.00
9249;BME280;4660;41.768;26.198;2024-02-04T09:01:31;101304.91;;;4.87;100.00
9249;BME280;4660;41.768;26.198;2024-02-04T09:03:57;101303.97;;;4.88;100.00
9249;BME280;4660;41.768;26.198;2024-02-04T09:06:23;101297.09;;;4.84;100.00
9249;BME280;4660;41.768;26.198;2024-02-04T09:08:49;101299.63;;;5.01;100.00
9249;BME280;4660;41.768;26.198;2024-02-04T09:11:14;101299.03;;;4.96;100.00
9249;BME280;4660;41.768;26.198;2024-02-04T09:13:47;101303.00;;;4.89;100.00
9249;BME280;4660;41.768;26.198;2024-02-04T09:16:13;101281.91;;;5.00;100.00
9249;BME280;4660;41.768;26.198;2024-02-04T09:18:40;101289.28;;;5.25;100.00
9249;BME280;4660;41.768;26.198;2024-02-04T09:21:06;101315.31;;;5.21;100.00
9249;BME280;4660;41.768;26.198;2024-02-04T09:23:32;101300.47;;;5.02;100.00
9249;BME280;4660;41.768;26.198;2024-02-04T09:25:57;101276.28;;;5.05;100.00
9249;BME280;4660;41.768;26.198;2024-02-04T09:28:23;101284.22;;;5.20;100.00
9249;BME280;4660;41.768;26.198;2024-02-04T09:30:48;101299.69;;;5.30;100.00
9249;BME280;4660;41.768;26.198;2024-02-04T09:33:14;101295.88;;;5.48;100.00
9249;BME280;4660;41.768;26.198;2024-02-04T09:35:40;101270.34;;;5.58;100.00
9249;BME280;4660;41.768;26.198;2024-02-04T09:38:06;101266.13;;;5.68;100.00
9249;BME280;4660;41.768;26.198;2024-02-04T09:40:32;101238.50;;;5.55;100.00
9249;BME280;4660;41.768;26.198;2024-02-04T09:42:58;101257.16;;;5.84;100.00
9249;BME280;4660;41.768;26.198;2024-02-04T09:45:24;101243.06;;;5.96;100.00
9249;BME280;4660;41.768;26.198;2024-02-04T09:47:52;101250.38;;;6.06;100.00
9249;BME280;4660;41.768;26.198;2024-02-04T09:50:22;101241.78;;;6.16;100.00
9249;BME280;4660;41.768;26.198;2024-02-04T09:52:55;101227.25;;;6.20;100.00
9249;BME280;4660;41.768;26.198;2024-02-04T09:55:25;101241.00;;;6.41;100.00
9249;BME280;4660;41.768;26.198;2024-02-04T09:57:51;101238.16;;;6.44;100.00
9249;BME280;4660;41.768;26.198;2024-02-04T10:00:21;101252.38;;;6.57;100.00
9249;BME280;4660;41.768;26.198;2024-02-04T10:02:47;101232.03;;;6.42;100.00
9249;BME280;4660;41.768;26.198;2024-02-04T10:05:14;101251.84;;;6.52;100.00
9249;BME280;4660;41.768;26.198;2024-02-04T10:07:40;101235.81;;;6.52;100.00
9249;BME280;4660;41.768;26.198;2024-02-04T10:10:07;101247.69;;;6.60;100.00
9249;BME280;4660;41.768;26.198;2024-02-04T10:12:32;101245.19;;;6.18;100.00
9249;BME280;4660;41.768;26.198;2024-02-04T10:14:59;101239.78;;;6.05;100.00
9249;BME280;4660;41.768;26.198;2024-02-04T10:17:25;101236.81;;;6.10;100.00
9249;BME280;4660;41.768;26.198;2024-02-04T10:19:50;101228.03;;;6.34;100.00
9249;BME280;4660;41.768;26.198;2024-02-04T10:22:16;101239.38;;;6.65;100.00
9249;BME280;4660;41.768;26.198;2024-02-04T10:24:42;101246.09;;;6.71;100.00
9249;BME280;4660;41.768;26.198;2024-02-04T10:27:10;101230.50;;;6.77;100.00
9249;BME280;4660;41.768;26.198;2024-02-04T10:29:36;101215.66;;;6.99;100.00
9249;BME280;4660;41.768;26.198;2024-02-04T10:32:02;101219.84;;;7.28;100.00
9249;BME280;4660;41.768;26.198;2024-02-04T10:34:29;101232.25;;;7.55;100.00
9249;BME280;4660;41.768;26.198;2024-02-04T10:36:58;101221.09;;;7.61;100.00
9249;BME280;4660;41.768;26.198;2024-02-04T10:39:23;101203.78;;;7.41;100.00
9249;BME280;4660;41.768;26.198;2024-02-04T10:41:50;101213.59;;;7.66;100.00
9249;BME280;4660;41.768;26.198;2024-02-04T10:44:21;101201.03;;;7.79;100.00
9249;BME280;4660;41.768;26.198;2024-02-04T10:46:47;101216.97;;;7.93;100.00
9249;BME280;4660;41.768;26.198;2024-02-04T10:49:15;101212.50;;;8.05;100.00
9249;BME280;4660;41.768;26.198;2024-02-04T10:51:41;101212.63;;;8.04;100.00
9249;BME280;4660;41.768;26.198;2024-02-04T10:54:08;101201.59;;;8.08;100.00
9249;BME280;4660;41.768;26.198;2024-02-04T10:56:37;101209.09;;;8.27;100.00
9249;BME280;4660;41.768;26.198;2024-02-04T10:59:04;101230.41;;;8.41;100.00
9249;BME280;4660;41.768;26.198;2024-02-04T11:01:32;101222.66;;;8.13;100.00
9249;BME280;4660;41.768;26.198;2024-02-04T11:04:01;101225.50;;;8.35;100.00
9249;BME280;4660;41.768;26.198;2024-02-04T11:06:28;101185.94;;;8.26;100.00
9249;BME280;4660;41.768;26.198;2024-02-04T11:08:55;101225.44;;;8.48;100.00
9249;BME280;4660;41.768;26.198;2024-02-04T11:11:21;101231.41;;;8.75;100.00
9249;BME280;4660;41.768;26.198;2024-02-04T11:13:50;101213.13;;;8.80;100.00
9249;BME280;4660;41.768;26.198;2024-02-04T11:19:28;101223.44;;;9.20;100.00
9249;BME280;4660;41.768;26.198;2024-02-04T11:27:31;101214.56;;;9.31;100.00
9249;BME280;4660;41.768;26.198;2024-02-04T11:29:57;101186.25;;;9.38;100.00
9249;BME280;4660;41.768;26.198;2024-02-04T11:32:24;101189.66;;;9.51;100.00
9249;BME280;4660;41.768;26.198;2024-02-04T11:34:50;101179.16;;;9.59;100.00
9249;BME280;4660;41.768;26.198;2024-02-04T11:37:19;101173.06;;;9.46;100.00
9249;BME280;4660;41.768;26.198;2024-02-04T11:39:50;101170.47;;;9.67;100.00
9249;BME280;4660;41.768;26.198;2024-02-04T11:42:16;101171.91;;;9.93;100.00
9249;BME280;4660;41.768;26.198;2024-02-04T11:44:41;101151.81;;;10.09;100.00
9249;BME280;4660;41.768;26.198;2024-02-04T11:47:07;101171.72;;;10.06;100.00
9249;BME280;4660;41.768;26.198;2024-02-04T11:49:33;101168.22;;;9.95;100.00
9249;BME280;4660;41.768;26.198;2024-02-04T11:52:00;101173.03;;;10.12;100.00
9249;BME280;4660;41.768;26.198;2024-02-04T11:54:25;101175.88;;;10.10;100.00
9249;BME280;4660;41.768;26.198;2024-02-04T11:56:52;101176.00;;;10.09;100.00
9249;BME280;4660;41.768;26.198;2024-02-04T11:59:24;101163.84;;;9.93;100.00
9249;BME280;4660;41.768;26.198;2024-02-04T12:01:54;101147.81;;;9.92;100.00
9249;BME280;4660;41.768;26.198;2024-02-04T12:04:20;101152.31;;;9.91;100.00
9249;BME280;4660;41.768;26.198;2024-02-04T12:06:47;101141.50;;;9.71;100.00
9249;BME280;4660;41.768;26.198;2024-02-04T12:09:16;101139.09;;;9.68;100.00
9249;BME280;4660;41.768;26.198;2024-02-04T12:11:43;101113.69;;;9.72;100.00
9249;BME280;4660;41.768;26.198;2024-02-04T12:14:10;101116.13;;;9.63;100.00
9249;BME280;4660;41.768;26.198;2024-02-04T12:16:38;101141.69;;;10.01;100.00
9249;BME280;4660;41.768;26.198;2024-02-04T12:19:04;101157.06;;;10.10;100.00
9249;BME280;4660;41.768;26.198;2024-02-04T12:21:31;101142.19;;;9.95;100.00
9249;BME280;4660;41.768;26.198;2024-02-04T12:23:59;101142.09;;;9.85;100.00
9249;BME280;4660;41.768;26.198;2024-02-04T12:26:25;101124.09;;;9.65;100.00
9249;BME280;4660;41.768;26.198;2024-02-04T12:28:51;101139.28;;;9.87;100.00
9249;BME280;4660;41.768;26.198;2024-02-04T12:31:20;101131.28;;;9.64;100.00
9249;BME280;4660;41.768;26.198;2024-02-04T12:33:57;101140.19;;;9.65;100.00
9249;BME280;4660;41.768;26.198;2024-02-04T12:36:28;101119.66;;;9.75;100.00
9249;BME280;4660;41.768;26.198;2024-02-04T12:38:55;101114.34;;;9.85;100.00
9249;BME280;4660;41.768;26.198;2024-02-04T12:41:21;101109.25;;;9.82;100.00
9249;BME280;4660;41.768;26.198;2024-02-04T12:43:56;101114.63;;;10.14;100.00
9249;BME280;4660;41.768;26.198;2024-02-04T12:46:22;101120.81;;;10.37;100.00
9249;BME280;4660;41.768;26.198;2024-02-04T12:48:55;101112.41;;;10.19;100.00
9249;BME280;4660;41.768;26.198;2024-02-04T12:51:28;101119.13;;;10.25;100.00
9249;BME280;4660;41.768;26.198;2024-02-04T12:54:10;101124.72;;;10.33;100.00
9249;BME280;4660;41.768;26.198;2024-02-04T12:56:46;101122.63;;;10.57;100.00
9249;BME280;4660;41.768;26.198;2024-02-04T12:59:32;101125.44;;;10.56;100.00
9249;BME280;4660;41.768;26.198;2024-02-04T13:02:04;101115.81;;;11.05;100.00
9249;BME280;4660;41.768;26.198;2024-02-04T13:04:36;101116.38;;;11.29;100.00
9249;BME280;4660;41.768;26.198;2024-02-04T13:07:15;101123.97;;;11.64;100.00
9249;BME280;4660;41.768;26.198;2024-02-04T13:09:43;101112.63;;;11.70;100.00